Main page
Satellite images 10-day forecastsClimateMarine weather Cyclones Lightning AirportsFAQ Newsletter About
Weather : Europe Africa North America South America Asia Australia-Oceania Others
Languages Contact

Tunis, Tunisia

Tunis–Carthage International Airport

latitude: 36-50N, longitude: 010-14E, elevation: 3 m


METAR: DTTA 010600Z 09003KT 060V140 8000 FEW026 24/20 Q1018 NOSIG
TAF: DTTA 010500Z 0106/0206 11004KT 8000 FEW026 BECMG 0112/0114 08014KT CAVOK BECMG 0200/0202 09004KT

Time: 07:32 (06:32 UTC)

Current weather observation

The report was made 32 minutes ago, at 06:00 UTC
Wind 3 kt from the East, varying between East/Northeast and Southeast
Temperature 24°C
Humidity 78%
Pressure 1018 hPa
Visibility: 8000 m
Few clouds at a height of 2600 ft

Change units

Forecast

The report was made 1 hour and 32 minutes ago, at 05:00 UTC
Forecast valid from 01 at 06 UTC to 02 at 06 UTC
Wind 4 kt from the East/Southeast
Visibility: 8000 m
Few clouds at a height of 2600 ft
Becoming
from 01 at 12 UTC to 01 at 14 UTC
Wind 14 kt from the East
Visibility 10 km or more
no clouds below 1500 m and no cumulonimbus
Becoming
from 02 at 00 UTC to 02 at 02 UTC
Wind 4 kt from the East
The information on this site is subject to a disclaimer
Weather : Europe Africa North America South America Asia Australia-Oceania Others
Satellite images 10-day forecastsClimateMarine weather Cyclones Lightning AirportsFAQ Languages Contact Newsletter About